Time;durP1;ratioP1;P1;durP2;ratioP2;P2;SDS_P1;SDS_P2;PMS_P1;PMS_P2;Temp;Humidity;BMP_temperature;BMP_pressure;BME280_temperature;BME280_humidity;BME280_pressure;Samples;Min_cycle;Max_cycle;Signal;HPM_P1;HPM_P2
2021/05/26 00:01:11;;;;;;;1.97;1.67;;;11.40;80.10;;;;;;5037244;28;20460;-49
2021/05/26 00:03:39;;;;;;;3.33;1.60;;;11.40;79.70;;;;;;5039956;28;20470;-49
2021/05/26 00:06:07;;;;;;;3.20;1.80;;;11.40;79.40;;;;;;5041473;28;20508;-49
2021/05/26 00:08:37;;;;;;;2.60;1.30;;;11.40;79.20;;;;;;5035505;28;20503;-49
2021/05/26 00:11:10;;;;;;;3.83;1.53;;;11.40;79.30;;;;;;5039457;28;20453;-49
2021/05/26 00:13:40;;;;;;;2.50;1.67;;;11.40;80.20;;;;;;5040424;28;20466;-49
2021/05/26 00:16:08;;;;;;;2.80;1.60;;;11.40;80.40;;;;;;5041840;28;20454;-49
2021/05/26 00:18:36;;;;;;;3.33;0.93;;;11.40;81.30;;;;;;5043472;28;20848;-51
2021/05/26 00:21:06;;;;;;;2.10;1.37;;;11.40;81.60;;;;;;5041374;28;20459;-50
2021/05/26 00:23:36;;;;;;;5.03;1.93;;;11.30;82.00;;;;;;5042589;28;21124;-50
2021/05/26 00:26:04;;;;;;;4.30;2.00;;;11.30;82.20;;;;;;5042660;28;20485;-50
2021/05/26 00:28:33;;;;;;;5.50;1.87;;;11.30;82.60;;;;;;5041957;28;20495;-50
2021/05/26 00:31:02;;;;;;;2.67;1.70;;;11.20;82.70;;;;;;5044176;28;20493;-50
2021/05/26 00:33:30;;;;;;;2.30;1.50;;;11.20;82.60;;;;;;5041126;28;20466;-50
2021/05/26 00:35:58;;;;;;;2.10;1.27;;;11.20;82.60;;;;;;5042504;28;20529;-50
2021/05/26 00:38:26;;;;;;;4.67;1.50;;;11.20;83.10;;;;;;5041961;28;20478;-50
2021/05/26 00:40:54;;;;;;;1.50;1.40;;;11.20;83.10;;;;;;5040612;28;21249;-50
2021/05/26 00:43:22;;;;;;;3.40;1.60;;;11.20;83.20;;;;;;5040990;28;20457;-50
2021/05/26 00:45:50;;;;;;;3.40;1.77;;;11.10;83.60;;;;;;5040086;28;20459;-50
2021/05/26 00:48:18;;;;;;;5.77;1.97;;;11.20;84.00;;;;;;5043951;28;21084;-49
2021/05/26 00:50:46;;;;;;;3.67;1.70;;;11.20;83.60;;;;;;5043790;28;20541;-50
2021/05/26 00:53:15;;;;;;;6.30;1.80;;;11.30;82.80;;;;;;5041697;28;20924;-50
2021/05/26 00:55:44;;;;;;;5.10;2.07;;;11.30;82.60;;;;;;5043720;28;20461;-49
2021/05/26 00:58:13;;;;;;;2.17;1.30;;;11.30;82.40;;;;;;5041254;28;20462;-49
2021/05/26 01:00:42;;;;;;;3.17;1.97;;;11.20;82.90;;;;;;5041125;28;20813;-50
2021/05/26 01:03:11;;;;;;;3.50;1.40;;;11.20;83.20;;;;;;5043076;28;20455;-50
2021/05/26 01:05:39;;;;;;;2.97;1.20;;;11.30;82.70;;;;;;5042545;28;20473;-50
2021/05/26 01:08:07;;;;;;;1.70;1.50;;;11.30;82.60;;;;;;5042039;28;20470;-49
2021/05/26 01:10:36;;;;;;;2.17;1.60;;;11.30;82.50;;;;;;5041906;28;20483;-49
2021/05/26 01:13:04;;;;;;;2.57;1.50;;;11.20;82.70;;;;;;5039148;28;20451;-49
2021/05/26 01:15:33;;;;;;;1.70;1.60;;;11.20;82.70;;;;;;5040481;28;20481;-50
2021/05/26 01:18:24;;;;;;;3.03;2.20;;;11.20;83.00;;;;;;5039490;28;20451;-50
2021/05/26 01:20:54;;;;;;;2.20;1.60;;;11.20;82.80;;;;;;5042807;28;20463;-50
2021/05/26 01:23:22;;;;;;;1.53;1.43;;;11.20;83.10;;;;;;5042518;28;20463;-50
2021/05/26 01:25:53;;;;;;;5.37;1.80;;;11.10;83.40;;;;;;5035468;28;20466;-50
2021/05/26 01:28:23;;;;;;;3.30;1.47;;;11.00;83.70;;;;;;5042085;28;20463;-50
2021/05/26 01:30:51;;;;;;;2.03;1.53;;;11.00;83.90;;;;;;5041179;28;20459;-50
2021/05/26 01:33:19;;;;;;;2.13;1.70;;;11.00;84.00;;;;;;5040726;28;20450;-49
2021/05/26 01:35:48;;;;;;;3.80;1.20;;;11.00;84.20;;;;;;5039283;28;20887;-50
2021/05/26 01:38:19;;;;;;;6.20;2.07;;;11.00;84.20;;;;;;5041340;28;20436;-50
2021/05/26 01:40:48;;;;;;;4.00;1.53;;;11.00;84.10;;;;;;5040482;28;20471;-50
2021/05/26 01:43:16;;;;;;;3.00;2.80;;;11.00;84.00;;;;;;5041457;28;20538;-50
2021/05/26 01:45:44;;;;;;;2.20;1.60;;;11.00;84.10;;;;;;5040077;28;20838;-50
2021/05/26 01:48:12;;;;;;;1.73;1.50;;;11.00;84.00;;;;;;5042933;28;20473;-50
2021/05/26 01:50:43;;;;;;;1.70;1.40;;;11.00;84.00;;;;;;5039193;28;21004;-50
2021/05/26 01:53:11;;;;;;;1.53;1.33;;;11.00;84.10;;;;;;5042125;28;20855;-50
2021/05/26 01:55:40;;;;;;;2.77;1.40;;;11.00;84.10;;;;;;5039148;28;20477;-50
2021/05/26 01:58:14;;;;;;;1.87;1.27;;;11.00;84.10;;;;;;5042439;28;20458;-50
2021/05/26 02:00:43;;;;;;;2.30;1.57;;;11.00;84.00;;;;;;5040045;28;20470;-50
2021/05/26 02:03:11;;;;;;;3.30;1.60;;;11.00;83.90;;;;;;5041706;28;20940;-50
2021/05/26 02:05:39;;;;;;;2.13;1.30;;;11.00;84.00;;;;;;5040451;28;20459;-50
2021/05/26 02:08:07;;;;;;;4.20;1.50;;;11.00;84.20;;;;;;5040005;28;21224;-50
2021/05/26 02:13:22;;;;;;;2.60;1.50;;;11.00;84.40;;;;;;5042038;28;20456;-50
2021/05/26 02:15:50;;;;;;;2.93;1.53;;;10.90;84.40;;;;;;5043034;28;21439;-50
2021/05/26 02:18:18;;;;;;;4.10;1.30;;;10.90;84.50;;;;;;5041252;28;20464;-49
2021/05/26 02:20:46;;;;;;;2.40;1.10;;;11.00;84.40;;;;;;5040621;28;21561;-49
2021/05/26 02:23:14;;;;;;;2.00;1.20;;;10.90;84.30;;;;;;5041544;28;20451;-50
2021/05/26 02:25:42;;;;;;;2.40;1.40;;;11.00;84.30;;;;;;5040090;28;20450;-47
2021/05/26 02:28:10;;;;;;;2.00;1.37;;;11.00;84.30;;;;;;5036565;28;20935;-47
2021/05/26 02:30:38;;;;;;;1.67;1.47;;;10.90;84.40;;;;;;5042343;28;20485;-47
2021/05/26 02:33:06;;;;;;;4.00;3.50;;;10.90;84.60;;;;;;5041002;28;20454;-47
2021/05/26 02:35:34;;;;;;;2.90;1.93;;;10.90;84.70;;;;;;5038453;28;20454;-48
2021/05/26 02:38:04;;;;;;;1.57;1.47;;;10.90;84.80;;;;;;5040785;28;20451;-48
2021/05/26 02:40:34;;;;;;;1.57;1.47;;;11.00;85.00;;;;;;5039674;28;20474;-48
2021/05/26 02:43:03;;;;;;;3.50;1.53;;;11.00;84.70;;;;;;5039212;28;20463;-46
2021/05/26 02:45:32;;;;;;;3.70;1.43;;;11.00;84.60;;;;;;5040099;28;20477;-48
2021/05/26 02:48:00;;;;;;;2.03;1.20;;;11.00;84.60;;;;;;5040545;28;20951;-48
2021/05/26 02:50:28;;;;;;;3.13;1.83;;;11.00;84.70;;;;;;5038849;28;20509;-48
2021/05/26 02:52:56;;;;;;;2.97;1.60;;;11.00;84.70;;;;;;5040968;28;20460;-48
2021/05/26 02:55:26;;;;;;;6.70;2.30;;;11.00;84.70;;;;;;5040951;28;20464;-47
2021/05/26 02:57:54;;;;;;;4.00;1.60;;;11.00;84.70;;;;;;5038847;28;20455;-48
2021/05/26 03:00:23;;;;;;;2.17;1.97;;;11.00;84.80;;;;;;5039265;28;20464;-48
2021/05/26 03:02:51;;;;;;;4.00;1.97;;;11.00;84.80;;;;;;5039856;28;20844;-48
2021/05/26 03:05:21;;;;;;;4.40;2.00;;;11.00;84.80;;;;;;5041900;28;20681;-47
2021/05/26 03:07:49;;;;;;;3.20;1.70;;;11.00;84.90;;;;;;5040776;28;20966;-47
2021/05/26 03:10:18;;;;;;;4.33;1.50;;;11.00;84.90;;;;;;5038918;28;20482;-48
2021/05/26 03:12:47;;;;;;;3.20;1.50;;;10.90;84.90;;;;;;5040519;28;20474;-48
2021/05/26 03:15:18;;;;;;;3.20;2.17;;;10.90;85.00;;;;;;5040657;28;20462;-48
2021/05/26 03:17:49;;;;;;;3.23;1.80;;;10.90;85.00;;;;;;5040718;28;20440;-48
2021/05/26 03:20:18;;;;;;;3.53;1.60;;;10.90;85.10;;;;;;5040587;28;20458;-48
2021/05/26 03:22:46;;;;;;;5.10;2.03;;;10.90;85.30;;;;;;5040945;28;20462;-48
2021/05/26 03:25:15;;;;;;;3.00;2.10;;;11.00;85.30;;;;;;5038954;28;20475;-48
2021/05/26 03:27:43;;;;;;;6.43;2.10;;;11.00;85.40;;;;;;5039843;28;20463;-48
2021/05/26 03:30:14;;;;;;;3.40;1.80;;;11.00;85.40;;;;;;5038306;28;20491;-48
2021/05/26 03:32:43;;;;;;;4.93;1.90;;;11.00;85.30;;;;;;5039280;28;20868;-48
2021/05/26 03:35:14;;;;;;;3.40;2.07;;;11.00;85.20;;;;;;5037786;28;20455;-48
2021/05/26 03:37:43;;;;;;;4.50;1.90;;;11.00;85.00;;;;;;5041425;28;20996;-48
2021/05/26 03:40:12;;;;;;;5.73;1.97;;;11.00;85.10;;;;;;5036412;28;20471;-48
2021/05/26 03:42:41;;;;;;;5.13;2.50;;;11.00;85.20;;;;;;5038952;28;20463;-48
2021/05/26 03:45:11;;;;;;;7.20;3.00;;;10.90;85.30;;;;;;5040875;28;20525;-48
2021/05/26 03:47:40;;;;;;;4.73;2.83;;;10.90;85.50;;;;;;5042596;28;20455;-48
2021/05/26 03:50:13;;;;;;;2.77;2.10;;;10.90;85.60;;;;;;5040902;28;20512;-49
2021/05/26 03:52:47;;;;;;;4.60;2.53;;;10.90;85.70;;;;;;5041943;28;20942;-49
2021/05/26 03:55:18;;;;;;;3.13;2.70;;;10.90;85.70;;;;;;5041473;28;20938;-48
2021/05/26 03:57:47;;;;;;;4.30;2.30;;;10.90;85.80;;;;;;5040688;28;20827;-49
2021/05/26 04:00:18;;;;;;;3.20;2.10;;;10.90;85.90;;;;;;5052082;28;20462;-48
2021/05/26 04:02:47;;;;;;;2.97;2.20;;;10.90;86.00;;;;;;5042424;28;20465;-48
2021/05/26 04:05:15;;;;;;;8.87;2.70;;;10.90;86.20;;;;;;5044324;28;20458;-48
2021/05/26 04:07:43;;;;;;;6.07;2.30;;;10.90;86.30;;;;;;5042599;28;20516;-48
2021/05/26 04:10:12;;;;;;;4.33;2.40;;;10.90;86.40;;;;;;5042780;28;20483;-48
2021/05/26 04:12:39;;;;;;;5.17;2.83;;;10.90;86.50;;;;;;5043881;28;20454;-48
2021/05/26 04:15:08;;;;;;;3.13;2.20;;;10.90;86.60;;;;;;5043711;28;20793;-48
2021/05/26 04:17:36;;;;;;;3.80;1.97;;;10.90;86.60;;;;;;5041953;28;20471;-48
2021/05/26 04:20:05;;;;;;;5.57;2.40;;;10.90;86.80;;;;;;5043196;28;20818;-48
2021/05/26 04:22:34;;;;;;;4.63;2.37;;;10.90;86.70;;;;;;5044339;28;20488;-48
2021/05/26 04:25:05;;;;;;;3.70;2.53;;;10.90;86.50;;;;;;5043456;28;20903;-48
2021/05/26 04:27:35;;;;;;;5.37;3.10;;;11.00;86.50;;;;;;5042143;28;20744;-48
2021/05/26 04:30:05;;;;;;;4.23;2.73;;;11.00;86.00;;;;;;5042073;28;20544;-48
2021/05/26 04:32:33;;;;;;;3.73;2.53;;;11.00;86.00;;;;;;5041736;28;20466;-48
2021/05/26 04:35:02;;;;;;;3.33;2.27;;;11.00;86.20;;;;;;5039940;28;20536;-48
2021/05/26 04:37:30;;;;;;;8.90;3.10;;;11.00;86.30;;;;;;5044773;28;20451;-48
2021/05/26 04:39:58;;;;;;;6.10;2.80;;;11.00;86.40;;;;;;5039046;28;20465;-48
2021/05/26 04:42:26;;;;;;;3.80;2.13;;;10.90;86.50;;;;;;5041637;28;20462;-48
2021/05/26 04:44:55;;;;;;;5.10;2.20;;;10.90;86.60;;;;;;5038325;28;20471;-48
2021/05/26 04:47:23;;;;;;;4.80;3.00;;;10.90;86.80;;;;;;5041277;28;20482;-48
2021/05/26 04:49:51;;;;;;;7.70;2.90;;;10.90;86.70;;;;;;5043676;28;21002;-48
2021/05/26 04:52:19;;;;;;;2.30;2.07;;;10.90;86.90;;;;;;5040284;28;20456;-48
2021/05/26 04:54:47;;;;;;;7.20;2.90;;;10.90;86.90;;;;;;5039790;28;20450;-48
2021/05/26 04:57:15;;;;;;;4.97;2.40;;;10.90;87.00;;;;;;5041512;28;20452;-48
2021/05/26 04:59:43;;;;;;;3.57;2.50;;;10.90;87.10;;;;;;5039940;28;20513;-48
2021/05/26 05:02:11;;;;;;;8.33;3.27;;;10.90;87.10;;;;;;5042156;28;20470;-48
2021/05/26 05:04:39;;;;;;;5.57;3.27;;;10.90;87.10;;;;;;5042817;28;20481;-48
2021/05/26 05:07:07;;;;;;;2.93;2.50;;;10.90;87.30;;;;;;5044652;28;20466;-48
2021/05/26 05:09:35;;;;;;;8.00;2.80;;;10.90;87.30;;;;;;5043970;28;20490;-48
2021/05/26 05:12:04;;;;;;;4.77;2.50;;;10.90;87.40;;;;;;5038101;28;20457;-48
2021/05/26 05:14:32;;;;;;;4.33;2.63;;;11.00;87.50;;;;;;5041867;28;20450;-48
2021/05/26 05:17:00;;;;;;;2.20;2.00;;;11.00;87.50;;;;;;5041869;28;20458;-48
2021/05/26 05:19:27;;;;;;;6.90;2.97;;;11.00;87.30;;;;;;5046445;28;20454;-48
2021/05/26 05:21:55;;;;;;;5.57;3.20;;;11.00;87.40;;;;;;5042519;28;20485;-48
2021/05/26 05:24:24;;;;;;;6.10;3.57;;;11.00;87.60;;;;;;5043874;28;20458;-48
2021/05/26 05:26:51;;;;;;;3.47;2.60;;;11.00;87.80;;;;;;5042913;28;20454;-48
2021/05/26 05:29:20;;;;;;;8.37;3.00;;;11.00;87.80;;;;;;5043198;28;20462;-48
2021/05/26 05:31:48;;;;;;;5.00;2.90;;;11.00;87.70;;;;;;5043626;28;21084;-48
2021/05/26 05:34:16;;;;;;;5.17;3.50;;;11.10;87.70;;;;;;5041301;28;20460;-48
2021/05/26 05:36:44;;;;;;;5.50;2.80;;;11.10;87.70;;;;;;5043563;28;20477;-48
2021/05/26 05:39:12;;;;;;;5.67;2.87;;;11.00;87.70;;;;;;5042765;28;20455;-48
2021/05/26 05:41:43;;;;;;;5.47;3.67;;;11.10;87.90;;;;;;5042709;28;20509;-48
2021/05/26 05:44:12;;;;;;;4.37;3.00;;;11.10;87.80;;;;;;5039658;28;20440;-48
2021/05/26 05:46:42;;;;;;;8.17;3.77;;;11.10;87.80;;;;;;5043711;28;20671;-48
2021/05/26 05:49:10;;;;;;;6.20;3.20;;;11.10;87.80;;;;;;5040824;28;20451;-48
2021/05/26 05:51:38;;;;;;;4.20;3.30;;;11.10;87.70;;;;;;5039049;28;21384;-47
2021/05/26 05:54:07;;;;;;;4.90;2.70;;;11.20;87.60;;;;;;5040588;28;20858;-48
2021/05/26 05:56:35;;;;;;;8.87;3.40;;;11.20;87.60;;;;;;5041266;28;21054;-48
2021/05/26 05:59:03;;;;;;;8.50;4.20;;;11.20;87.60;;;;;;5041604;28;20470;-48
2021/05/26 06:01:31;;;;;;;8.97;3.67;;;11.10;87.60;;;;;;5042527;28;20473;-48
2021/05/26 06:04:00;;;;;;;4.73;2.77;;;11.20;87.80;;;;;;5041208;28;20462;-48
2021/05/26 06:06:28;;;;;;;6.47;3.70;;;11.20;87.70;;;;;;5041149;28;20459;-48
2021/05/26 06:08:56;;;;;;;4.97;3.23;;;11.20;87.70;;;;;;5041323;28;20486;-48
2021/05/26 06:11:24;;;;;;;9.03;3.20;;;11.20;87.70;;;;;;5042451;28;20486;-48
2021/05/26 06:13:53;;;;;;;7.03;3.77;;;11.20;87.80;;;;;;5042559;28;20466;-48
2021/05/26 06:16:22;;;;;;;4.70;4.20;;;11.20;87.90;;;;;;5042719;28;20447;-48
2021/05/26 06:18:50;;;;;;;6.10;3.40;;;11.20;87.90;;;;;;5040029;28;20979;-48
2021/05/26 06:21:18;;;;;;;6.30;3.20;;;11.30;88.00;;;;;;5041331;28;20968;-48
2021/05/26 06:23:47;;;;;;;5.60;3.27;;;11.30;88.00;;;;;;5040801;28;20465;-48
2021/05/26 06:26:15;;;;;;;8.83;4.03;;;11.40;87.80;;;;;;5042253;28;20625;-48
2021/05/26 06:28:43;;;;;;;7.00;3.90;;;11.40;87.90;;;;;;5039139;28;20516;-48
2021/05/26 06:31:15;;;;;;;3.93;3.27;;;11.40;88.00;;;;;;5044357;28;20486;-48
2021/05/26 06:33:44;;;;;;;4.43;3.27;;;11.50;87.90;;;;;;5041309;28;20435;-48
2021/05/26 06:36:12;;;;;;;4.10;2.80;;;11.50;87.50;;;;;;5035928;28;20447;-48
2021/05/26 06:38:40;;;;;;;3.03;2.63;;;11.50;87.50;;;;;;5039379;28;20466;-48
2021/05/26 06:41:09;;;;;;;5.30;2.90;;;11.50;87.70;;;;;;5039006;28;20466;-47
2021/05/26 06:43:37;;;;;;;5.10;2.73;;;11.60;87.70;;;;;;5041170;28;20537;-48
2021/05/26 06:46:05;;;;;;;6.60;3.27;;;11.60;87.40;;;;;;5043217;28;20463;-47
2021/05/26 06:48:36;;;;;;;8.50;2.57;;;11.60;87.40;;;;;;5042199;28;20891;-48
2021/05/26 06:51:04;;;;;;;3.50;2.00;;;11.60;87.00;;;;;;5043372;28;20855;-48
2021/05/26 06:53:33;;;;;;;5.70;2.70;;;11.70;86.30;;;;;;5040583;28;20469;-48
2021/05/26 06:56:01;;;;;;;2.30;2.10;;;11.70;86.30;;;;;;5038832;28;20632;-47
2021/05/26 06:58:29;;;;;;;2.80;2.53;;;11.70;86.40;;;;;;5040878;28;20454;-48
2021/05/26 07:00:57;;;;;;;4.77;2.50;;;11.70;86.30;;;;;;5041102;28;20764;-48
2021/05/26 07:03:26;;;;;;;4.87;2.30;;;11.70;86.10;;;;;;5039786;28;20467;-48
2021/05/26 07:05:53;;;;;;;3.80;2.70;;;11.70;86.00;;;;;;5041340;28;20452;-48
2021/05/26 07:08:22;;;;;;;3.33;2.40;;;11.70;86.00;;;;;;5038877;28;20510;-48
2021/05/26 07:10:49;;;;;;;4.70;2.40;;;11.70;86.00;;;;;;5040990;28;20986;-48
2021/05/26 07:13:18;;;;;;;2.60;2.40;;;11.70;86.20;;;;;;5038274;28;20965;-48
2021/05/26 07:15:46;;;;;;;2.70;2.10;;;11.70;86.50;;;;;;5041887;28;20880;-48
2021/05/26 07:18:14;;;;;;;4.73;2.20;;;11.80;86.50;;;;;;5038672;28;20462;-47
2021/05/26 07:20:45;;;;;;;6.00;2.30;;;11.90;86.30;;;;;;5043027;28;20445;-48
2021/05/26 07:23:17;;;;;;;4.90;2.57;;;11.90;86.30;;;;;;5038473;28;20479;-48
2021/05/26 07:25:45;;;;;;;3.20;2.00;;;12.00;85.90;;;;;;5038996;28;20470;-48
2021/05/26 07:28:13;;;;;;;2.43;1.70;;;12.10;85.10;;;;;;5042604;28;21026;-48
2021/05/26 07:30:41;;;;;;;4.30;2.47;;;12.10;85.20;;;;;;5039887;28;20482;-48
2021/05/26 07:33:10;;;;;;;4.77;2.30;;;12.10;85.10;;;;;;5040735;28;20458;-47
2021/05/26 07:35:38;;;;;;;2.70;2.00;;;12.10;84.50;;;;;;5037764;28;20462;-48
2021/05/26 07:38:19;;;;;;;1.70;1.53;;;12.10;84.70;;;;;;5038160;28;20462;-48
2021/05/26 07:40:47;;;;;;;7.17;1.80;;;12.20;84.70;;;;;;5039828;28;20473;-48
2021/05/26 07:43:15;;;;;;;3.90;1.53;;;12.20;84.60;;;;;;5040897;28;20647;-48
2021/05/26 07:45:43;;;;;;;2.10;1.57;;;12.20;83.70;;;;;;5041491;28;20457;-48
2021/05/26 07:48:12;;;;;;;4.67;1.60;;;12.20;83.60;;;;;;5041093;28;20459;-48
2021/05/26 07:50:39;;;;;;;2.57;1.80;;;12.20;83.50;;;;;;5041904;28;20482;-48
2021/05/26 07:53:08;;;;;;;4.77;1.60;;;12.30;82.80;;;;;;5040390;28;20462;-48
2021/05/26 07:55:35;;;;;;;2.47;1.73;;;12.20;82.40;;;;;;5039409;28;20459;-47
2021/05/26 07:58:03;;;;;;;7.47;3.93;;;12.20;81.70;;;;;;5041513;28;20463;-48
2021/05/26 08:00:32;;;;;;;2.60;1.70;;;12.20;81.20;;;;;;5039647;28;20478;-48
2021/05/26 08:03:00;;;;;;;1.73;1.50;;;12.30;81.40;;;;;;5039323;28;20952;-48
2021/05/26 08:05:28;;;;;;;1.90;1.70;;;12.30;81.70;;;;;;5039869;28;20806;-48
2021/05/26 08:07:56;;;;;;;3.87;1.50;;;12.30;82.70;;;;;;5036001;28;20484;-48
2021/05/26 08:10:24;;;;;;;3.73;2.07;;;12.30;82.60;;;;;;5041734;28;20562;-48
2021/05/26 08:12:52;;;;;;;2.83;2.10;;;12.40;82.70;;;;;;5040680;28;20492;-46
2021/05/26 08:15:21;;;;;;;5.20;1.97;;;12.40;82.30;;;;;;5038349;28;20509;-48
2021/05/26 08:17:49;;;;;;;3.90;1.70;;;12.50;82.40;;;;;;5037778;28;20466;-48
2021/05/26 08:20:18;;;;;;;1.90;1.70;;;12.50;82.20;;;;;;5038373;28;20483;-47
2021/05/26 08:22:45;;;;;;;3.13;2.07;;;12.50;81.20;;;;;;5038621;28;20462;-47
2021/05/26 08:25:17;;;;;;;2.13;1.90;;;12.50;81.70;;;;;;5037752;28;20531;-48
2021/05/26 08:27:45;;;;;;;3.07;2.43;;;12.50;81.30;;;;;;5038651;28;20454;-46
2021/05/26 08:30:14;;;;;;;3.80;2.33;;;12.60;81.60;;;;;;5041020;28;20470;-48
2021/05/26 08:32:42;;;;;;;2.97;2.00;;;12.60;81.50;;;;;;5042204;28;20990;-48
2021/05/26 08:35:11;;;;;;;4.10;2.13;;;12.70;81.70;;;;;;5038393;28;20955;-47
2021/05/26 08:37:39;;;;;;;6.03;1.57;;;12.70;81.10;;;;;;5042727;28;20478;-46
2021/05/26 08:40:07;;;;;;;1.80;1.70;;;12.80;80.00;;;;;;5041788;28;20459;-46
2021/05/26 08:42:36;;;;;;;1.50;1.40;;;12.80;80.10;;;;;;5042553;28;20967;-45
2021/05/26 08:45:05;;;;;;;3.20;1.70;;;12.80;80.00;;;;;;5042657;28;20471;-47
2021/05/26 08:47:35;;;;;;;2.90;1.70;;;12.90;80.80;;;;;;5043066;28;20518;-46
2021/05/26 08:50:04;;;;;;;2.53;2.03;;;12.90;79.80;;;;;;5041989;28;20469;-48
2021/05/26 08:52:32;;;;;;;2.17;1.80;;;12.90;79.00;;;;;;5038702;28;20466;-48
2021/05/26 08:55:01;;;;;;;2.13;1.70;;;12.90;79.30;;;;;;5041119;28;20458;-46
2021/05/26 08:57:31;;;;;;;1.73;1.63;;;12.90;79.50;;;;;;5044979;28;20824;-46
2021/05/26 08:59:59;;;;;;;3.30;2.17;;;12.90;78.90;;;;;;5047315;28;20450;-46
2021/05/26 09:02:27;;;;;;;2.70;2.00;;;13.00;79.20;;;;;;5041659;28;20467;-46
2021/05/26 09:04:55;;;;;;;2.70;1.97;;;13.00;78.50;;;;;;5040217;28;20459;-46
2021/05/26 09:07:26;;;;;;;3.33;2.00;;;13.10;78.90;;;;;;5042577;28;20458;-46
2021/05/26 09:10:06;;;;;;;3.80;1.80;;;13.20;79.00;;;;;;5040797;28;20929;-47
2021/05/26 09:12:44;;;;;;;3.17;1.67;;;13.20;78.40;;;;;;5043699;28;21055;-46
2021/05/26 09:15:20;;;;;;;2.10;1.47;;;13.20;78.40;;;;;;5041219;28;20457;-46
2021/05/26 09:17:51;;;;;;;6.43;2.03;;;13.20;78.20;;;;;;5039259;28;20470;-46
2021/05/26 09:20:32;;;;;;;2.23;1.67;;;13.20;78.90;;;;;;5043835;28;20466;-48
2021/05/26 09:23:05;;;;;;;2.60;1.40;;;13.30;78.80;;;;;;5043394;28;20481;-48
2021/05/26 09:25:45;;;;;;;3.77;1.47;;;13.30;78.70;;;;;;5045462;28;20440;-47
2021/05/26 09:28:25;;;;;;;1.47;1.37;;;13.30;78.60;;;;;;5041774;28;20454;-47
2021/05/26 09:31:12;;;;;;;3.27;0.90;;;13.30;78.20;;;;;;5042450;28;20843;-47
2021/05/26 09:33:43;;;;;;;1.73;0.77;;;13.30;77.10;;;;;;5041858;28;20438;-47
2021/05/26 09:36:23;;;;;;;4.30;1.23;;;13.30;77.10;;;;;;5039748;28;20443;-46
2021/05/26 09:38:59;;;;;;;1.30;0.90;;;13.30;77.30;;;;;;5043204;28;20450;-47
2021/05/26 09:41:32;;;;;;;1.20;1.10;;;13.30;77.00;;;;;;5042051;28;20573;-47
2021/05/26 09:44:13;;;;;;;3.60;0.97;;;13.30;77.60;;;;;;5040450;28;20458;-48
2021/05/26 09:46:46;;;;;;;2.90;0.87;;;13.30;79.20;;;;;;5043654;28;20909;-48
2021/05/26 09:49:23;;;;;;;0.60;0.60;;;13.40;79.90;;;;;;5039827;28;20451;-46
2021/05/26 09:51:57;;;;;;;1.60;1.00;;;13.30;79.70;;;;;;5042694;28;20856;-46
2021/05/26 09:54:27;;;;;;;1.73;1.10;;;13.20;80.50;;;;;;5044074;28;20518;-46
2021/05/26 09:57:07;;;;;;;2.67;1.07;;;13.20;81.00;;;;;;5041291;28;20454;-46
2021/05/26 09:59:36;;;;;;;0.90;0.80;;;13.20;80.60;;;;;;5043005;28;20625;-46
2021/05/26 10:02:07;;;;;;;1.13;1.00;;;13.20;81.50;;;;;;5040759;28;20943;-46
2021/05/26 10:04:36;;;;;;;3.43;0.97;;;13.20;81.40;;;;;;5044756;28;20469;-46
2021/05/26 10:07:05;;;;;;;1.43;0.97;;;13.20;81.80;;;;;;5043590;28;20467;-46
2021/05/26 10:09:34;;;;;;;2.30;1.20;;;13.10;82.20;;;;;;5041849;28;20502;-47
2021/05/26 10:12:04;;;;;;;1.33;1.23;;;13.20;82.40;;;;;;5041047;28;20552;-46
2021/05/26 10:14:36;;;;;;;3.43;1.27;;;13.20;82.40;;;;;;5046668;28;20451;-46
2021/05/26 10:17:09;;;;;;;2.23;1.40;;;13.10;82.60;;;;;;5039613;28;20504;-46
2021/05/26 10:19:37;;;;;;;1.37;1.17;;;13.10;83.00;;;;;;5043812;28;20454;-47
2021/05/26 10:22:05;;;;;;;1.40;0.90;;;13.10;83.10;;;;;;5038311;28;20463;-46
2021/05/26 10:24:33;;;;;;;2.40;0.83;;;13.10;82.20;;;;;;5041289;28;20490;-46
2021/05/26 10:27:05;;;;;;;1.87;1.50;;;13.10;82.30;;;;;;5041034;28;20494;-46
2021/05/26 10:29:39;;;;;;;2.00;0.90;;;13.10;82.90;;;;;;5045395;28;20459;-46
2021/05/26 10:32:14;;;;;;;3.00;0.70;;;13.20;82.60;;;;;;5043351;28;20974;-46
2021/05/26 10:34:51;;;;;;;1.43;1.00;;;13.20;82.70;;;;;;5037976;28;20454;-46
2021/05/26 10:37:37;;;;;;;2.10;1.20;;;13.20;82.90;;;;;;5039414;28;20485;-46
2021/05/26 10:40:33;;;;;;;1.10;0.93;;;13.20;83.10;;;;;;5045194;28;20455;-46
2021/05/26 10:43:21;;;;;;;2.27;0.90;;;13.10;83.40;;;;;;5041412;28;20482;-46
2021/05/26 10:45:51;;;;;;;1.10;1.00;;;13.20;83.40;;;;;;5037307;28;20549;-48
2021/05/26 10:48:38;;;;;;;3.50;1.33;;;13.10;83.50;;;;;;5040202;28;20467;-46
2021/05/26 10:51:07;;;;;;;1.53;1.00;;;13.20;84.30;;;;;;5040606;28;20480;-46
2021/05/26 10:53:43;;;;;;;0.80;0.80;;;13.20;83.80;;;;;;5040815;28;20460;-46
2021/05/26 10:56:37;;;;;;;1.07;0.90;;;13.20;83.00;;;;;;5042035;28;20467;-46
2021/05/26 10:59:14;;;;;;;1.27;0.97;;;13.30;83.00;;;;;;5037742;28;20442;-46
2021/05/26 11:02:04;;;;;;;0.93;0.70;;;13.30;83.20;;;;;;5041782;28;20493;-46
2021/05/26 11:04:34;;;;;;;0.67;0.60;;;13.30;82.70;;;;;;5037663;28;20501;-47
2021/05/26 11:07:20;;;;;;;0.80;0.60;;;13.40;82.60;;;;;;5042808;28;20471;-46
2021/05/26 11:10:02;;;;;;;0.83;0.60;;;13.50;82.20;;;;;;5042355;28;20485;-46
2021/05/26 11:12:54;;;;;;;0.70;0.67;;;13.70;82.80;;;;;;5044994;28;20482;-46
2021/05/26 11:15:43;;;;;;;0.60;0.50;;;13.90;82.00;;;;;;5045104;28;20493;-46
2021/05/26 11:18:14;;;;;;;1.00;1.00;;;14.00;81.60;;;;;;5040933;28;20442;-46
2021/05/26 11:20:43;;;;;;;0.50;0.50;;;14.20;80.90;;;;;;5042831;28;20470;-46
2021/05/26 11:23:16;;;;;;;1.67;0.70;;;14.20;80.30;;;;;;5040961;28;20547;-46
2021/05/26 11:25:53;;;;;;;0.50;0.40;;;14.30;79.70;;;;;;5038572;28;20457;-46
2021/05/26 11:28:28;;;;;;;0.80;0.60;;;14.30;80.40;;;;;;5039666;28;20790;-46
2021/05/26 11:31:04;;;;;;;0.50;0.40;;;14.30;80.30;;;;;;5035836;28;20640;-46
2021/05/26 11:33:33;;;;;;;0.57;0.40;;;14.30;80.00;;;;;;5041520;28;20951;-46
2021/05/26 11:36:05;;;;;;;0.70;0.70;;;14.40;79.70;;;;;;5041767;28;21000;-47
2021/05/26 11:38:34;;;;;;;0.40;0.40;;;14.30;78.80;;;;;;5042596;28;20450;-47
2021/05/26 11:41:16;;;;;;;0.83;0.57;;;14.30;78.80;;;;;;5041237;28;21057;-46
2021/05/26 11:43:44;;;;;;;1.37;0.70;;;14.20;80.60;;;;;;5041248;28;20454;-47
2021/05/26 11:46:12;;;;;;;1.70;1.00;;;14.10;80.60;;;;;;5042229;28;20454;-47
2021/05/26 11:48:47;;;;;;;0.50;0.50;;;14.10;80.90;;;;;;5041418;28;20888;-47
2021/05/26 11:51:24;;;;;;;0.97;0.40;;;14.10;80.30;;;;;;5038001;28;20491;-48
2021/05/26 11:53:58;;;;;;;0.60;0.40;;;14.10;80.90;;;;;;5039986;28;20477;-47
2021/05/26 11:56:26;;;;;;;1.10;0.50;;;14.10;80.70;;;;;;5040809;28;20466;-47
2021/05/26 11:58:54;;;;;;;0.50;0.40;;;14.10;80.10;;;;;;5038844;28;20455;-47
2021/05/26 12:01:34;;;;;;;1.30;0.67;;;14.10;80.40;;;;;;5040762;28;20467;-47
2021/05/26 12:04:15;;;;;;;3.37;0.70;;;14.10;80.20;;;;;;5039688;28;21145;-47
2021/05/26 12:06:42;;;;;;;0.60;0.40;;;14.20;80.10;;;;;;5039227;28;20960;-47
2021/05/26 12:09:30;;;;;;;0.43;0.43;;;14.20;80.00;;;;;;5039213;28;20490;-47
2021/05/26 12:12:12;;;;;;;0.70;0.57;;;14.30;80.00;;;;;;5041849;28;20487;-47
2021/05/26 12:14:41;;;;;;;0.50;0.37;;;14.30;80.50;;;;;;5044584;28;20532;-47
2021/05/26 12:17:13;;;;;;;0.50;0.50;;;14.30;80.60;;;;;;5042118;28;20966;-47
2021/05/26 12:19:42;;;;;;;0.50;0.40;;;14.20;81.40;;;;;;5044629;28;20451;-47
2021/05/26 12:22:17;;;;;;;0.73;0.50;;;14.20;82.20;;;;;;5044939;28;20943;-47
2021/05/26 12:25:04;;;;;;;0.70;0.40;;;14.20;82.50;;;;;;5043837;28;20469;-47
2021/05/26 12:27:44;;;;;;;1.93;1.70;;;14.30;82.30;;;;;;5043936;28;20478;-47
2021/05/26 12:30:19;;;;;;;0.63;0.50;;;14.30;82.80;;;;;;5044896;28;20458;-47
2021/05/26 12:32:49;;;;;;;0.87;0.87;;;14.40;84.20;;;;;;5043616;28;20493;-47
2021/05/26 12:35:18;;;;;;;0.73;0.70;;;14.50;83.60;;;;;;5042538;28;20462;-47
2021/05/26 12:37:52;;;;;;;1.37;1.00;;;14.70;84.00;;;;;;5043003;28;20470;-47
2021/05/26 12:40:27;;;;;;;0.97;0.90;;;14.90;83.20;;;;;;5045244;28;20462;-47
2021/05/26 12:42:58;;;;;;;0.80;0.60;;;15.00;83.10;;;;;;5042649;28;20477;-47
2021/05/26 12:45:31;;;;;;;3.00;1.07;;;15.10;80.40;;;;;;5039181;28;20474;-46
2021/05/26 12:48:12;;;;;;;1.73;1.33;;;15.20;80.40;;;;;;5041681;28;20482;-48
2021/05/26 12:50:43;;;;;;;1.40;1.00;;;15.30;80.00;;;;;;5042481;28;20555;-46
2021/05/26 12:53:16;;;;;;;1.00;0.90;;;15.30;79.10;;;;;;5042022;28;20858;-47
2021/05/26 12:55:45;;;;;;;1.33;1.00;;;15.30;78.30;;;;;;5045223;28;20446;-47
2021/05/26 12:58:15;;;;;;;1.97;1.20;;;15.30;77.80;;;;;;5040766;28;20454;-47
2021/05/26 13:00:44;;;;;;;1.30;1.20;;;15.30;77.30;;;;;;5041189;28;20458;-47
2021/05/26 13:03:16;;;;;;;1.50;1.40;;;15.20;78.10;;;;;;5043694;28;20509;-47
2021/05/26 13:05:49;;;;;;;2.03;1.07;;;15.20;79.30;;;;;;5046303;28;20489;-47
2021/05/26 13:08:19;;;;;;;1.40;1.30;;;15.20;80.60;;;;;;5040302;28;20498;-47